AirNav   Pilot Hours Calculator
 
 933 users online  

ME64 Skydive Lebanon Airport
West Lebanon, Maine, USA

GOING TO WEST LEBANON?


FAA INFORMATION EFFECTIVE 30 JANUARY 2020

Location

FAA Identifier: ME64
Lat/Long: 43-22-30.2930N 070-55-45.2230W
43-22.504883N 070-55.753717W
43.3750814,-70.9292286
(estimated)
Elevation: 365 ft. / 111 m (estimated)
Variation: 16W (1990)
From city: 1 mile SE of WEST LEBANON, ME
Time zone: UTC -5 (UTC -4 during Daylight Saving Time)
Zip code: 04027

Airport Operations

Airport use: Private use. Permission required prior to landing
Activation date: 03/1992
Control tower: no
ARTCC: BOSTON CENTER
FSS: BANGOR FLIGHT SERVICE STATION
Attendance: APR-NOV 0800-SS, DEC-MAR UNATNDD
Segmented circle: no

Airport Communications

WX ASOS at DAW (5 nm S): 135.275 (603-332-7814)
WX AWOS-3PT at SFM (10 nm E): 120.025 (207-324-1958)

Nearby radio navigation aids

VOR radial/distance  VOR name  Freq  Var
ENEr275/14.1KENNEBUNK VOR/DME117.1017W
PSMr002/17.9PEASE VOR/DME116.5016W
CONr087/29.7CONCORD VOR/DME112.9015W
MHTr047/36.0MANCHESTER VOR/DME114.4015W
LWMr026/38.8LAWRENCE VOR/DME112.5015W

 
NDB name  Hdg/Dist  Freq  Var  ID
ROLLINS351/10.326016WESG . ... --.

Airport Services

Runway Information

Runway 17/35

Dimensions: 4000 x 28 ft. / 1219 x 9 m
Surface: asphalt
RUNWAY 17  RUNWAY 35
Traffic pattern: leftleft

Airport Ownership and Management from official FAA records

Ownership: Privately-owned
Owner: EXTREME AIR LLC
30 SKYDIVE LANE
LEBANON, ME 04027
Phone 207-339-1520
Manager: FRED COTREAU
C/O EXTREME AIR LLC, 30 SKYDIVE LANE
LEBANON, ME 04027
Phone 207-339-1520

Additional Remarks

FOR CD CTC BOSTON APCH AT 603-594-5551.

Instrument Procedures

There are no published instrument procedures at ME64.

Some nearby airports with instrument procedures:

KDAW - Skyhaven Airport (5 nm S)
KSFM - Sanford Seacoast Regional Airport (10 nm E)
3B4 - Littlebrook Air Park (15 nm SE)
KPSM - Portsmouth International Airport at Pease (18 nm S)
B19 - Biddeford Municipal Airport (21 nm E)
 
Loc | Ops | Rwys | IFR | FBO | Links
Com | Nav | Svcs | Stats | Notes
Area around ME64 (Skydive Lebanon Airport)
 
Road maps at: MapQuest Bing Google
 
Aerial photo
WARNING: Photo may not be current or correct
Aerial photo of ME64 (Skydive Lebanon Airport)
Photo courtesy of Bruce Vinal, Aerial Perspectives
Photo taken 07-Aug-2010

Do you have a better or more recent aerial photo of Skydive Lebanon Airport that you would like to share? If so, please send us your photo.

 
Sectional chart

 
Airport distance calculator
Flying to Skydive Lebanon Airport? Find the distance to fly.

From to ME64

Sunrise and sunset
Times for 20-Feb-2020
 Local
(UTC-5)
 Zulu
(UTC)
Morning civil twilight06:0611:06
Sunrise06:3611:36
Sunset17:2022:20
Evening civil twilight17:4922:49

Current date and time
Zulu (UTC)  21-Feb-2020 03:25:59
Local (UTC-5)  20-Feb-2020 22:25:59
 
METAR
KDAW 
6nm S 
210251Z AUTO 29003KT 10SM CLR M10/M17 A3042 RMK AO2 SLP303 T11001172 53014
KSFM 
9nm E 
210256Z AUTO 32005KT 10SM CLR M12/M17 A3043 RMK AO2 SLP312 T11221167 53014 FZRANO
KPSM 
19nm S 
210256Z 33011KT 10SM FEW070 M07/M16 A3041 RMK AO2A SLP301 T10691158 53014
TAF
KPSM 
19nm S 
201720Z 2018/2118 29010G15KT P6SM SCT050 FM202200 30006KT P6SM SKC
NOTAMs
Click for the latest NOTAMs
NOTAMs are issued by the DoD/FAA and will open in a separate window not controlled by AirNav.

 

 
 

Would you like to see your business listed on this page?

 If your business provides an interesting product or service to pilots, flight crews, aircraft, or users of the Skydive Lebanon Airport, you should consider listing it here.  To start the listing process, click on the button below
 
Add a business
 

Other Pages about Skydive Lebanon Airport

Update a link
 
Copyright © AirNav, LLC. All rights reserved. Privacy Policy  Contact